sensor_id;sensor_type;location;lat;lon;timestamp;temperature;humidity
70676;DHT22;59069;52.242;20.900;2022-12-10T00:01:24;1.90;86.05
70676;DHT22;59069;52.242;20.900;2022-12-10T00:03:50;1.85;86.00
70676;DHT22;59069;52.242;20.900;2022-12-10T00:06:19;1.86;86.10
70676;DHT22;59069;52.242;20.900;2022-12-10T00:08:45;1.86;86.19
70676;DHT22;59069;52.242;20.900;2022-12-10T00:11:12;1.89;86.12
70676;DHT22;59069;52.242;20.900;2022-12-10T00:13:38;1.87;86.21
70676;DHT22;59069;52.242;20.900;2022-12-10T00:16:07;1.87;86.19
70676;DHT22;59069;52.242;20.900;2022-12-10T00:18:34;1.87;86.28
70676;DHT22;59069;52.242;20.900;2022-12-10T00:21:03;1.87;86.31
70676;DHT22;59069;52.242;20.900;2022-12-10T00:23:29;1.87;86.29
70676;DHT22;59069;52.242;20.900;2022-12-10T00:26:11;1.86;86.25
70676;DHT22;59069;52.242;20.900;2022-12-10T00:28:37;1.83;86.27
70676;DHT22;59069;52.242;20.900;2022-12-10T00:31:05;1.83;86.31
70676;DHT22;59069;52.242;20.900;2022-12-10T00:33:31;1.82;86.31
70676;DHT22;59069;52.242;20.900;2022-12-10T00:36:02;1.86;86.33
70676;DHT22;59069;52.242;20.900;2022-12-10T00:38:28;1.89;86.35
70676;DHT22;59069;52.242;20.900;2022-12-10T00:40:53;1.90;86.27
70676;DHT22;59069;52.242;20.900;2022-12-10T00:43:19;1.89;86.33
70676;DHT22;59069;52.242;20.900;2022-12-10T00:45:44;1.89;86.46
70676;DHT22;59069;52.242;20.900;2022-12-10T00:48:10;1.89;86.45
70676;DHT22;59069;52.242;20.900;2022-12-10T00:50:35;1.92;86.35
70676;DHT22;59069;52.242;20.900;2022-12-10T00:53:01;1.92;86.24
70676;DHT22;59069;52.242;20.900;2022-12-10T00:55:26;1.92;86.14
70676;DHT22;59069;52.242;20.900;2022-12-10T00:57:51;1.90;86.18
70676;DHT22;59069;52.242;20.900;2022-12-10T01:00:17;1.87;86.28
70676;DHT22;59069;52.242;20.900;2022-12-10T01:02:42;1.92;86.33
70676;DHT22;59069;52.242;20.900;2022-12-10T01:05:08;1.90;86.31
70676;DHT22;59069;52.242;20.900;2022-12-10T01:07:33;1.89;86.36
70676;DHT22;59069;52.242;20.900;2022-12-10T01:09:59;1.86;86.33
70676;DHT22;59069;52.242;20.900;2022-12-10T01:12:24;1.86;86.32
70676;DHT22;59069;52.242;20.900;2022-12-10T01:14:49;1.82;86.43
70676;DHT22;59069;52.242;20.900;2022-12-10T01:17:15;1.85;86.30
70676;DHT22;59069;52.242;20.900;2022-12-10T01:19:40;1.82;86.25
70676;DHT22;59069;52.242;20.900;2022-12-10T01:22:06;1.82;86.36
70676;DHT22;59069;52.242;20.900;2022-12-10T01:24:31;1.83;86.38
70676;DHT22;59069;52.242;20.900;2022-12-10T01:26:57;1.86;86.51
70676;DHT22;59069;52.242;20.900;2022-12-10T01:29:24;1.86;86.43
70676;DHT22;59069;52.242;20.900;2022-12-10T01:31:51;1.87;86.45
70676;DHT22;59069;52.242;20.900;2022-12-10T01:34:17;1.89;86.38
70676;DHT22;59069;52.242;20.900;2022-12-10T01:36:44;1.89;86.39
70676;DHT22;59069;52.242;20.900;2022-12-10T01:39:13;1.85;86.38
70676;DHT22;59069;52.242;20.900;2022-12-10T01:41:59;1.85;86.57
70676;DHT22;59069;52.242;20.900;2022-12-10T01:46:55;1.83;86.51
70676;DHT22;59069;52.242;20.900;2022-12-10T01:49:25;1.80;86.67
70676;DHT22;59069;52.242;20.900;2022-12-10T01:51:53;1.83;86.73
70676;DHT22;59069;52.242;20.900;2022-12-10T01:54:26;1.86;86.70
70676;DHT22;59069;52.242;20.900;2022-12-10T01:57:06;1.89;86.65
70676;DHT22;59069;52.242;20.900;2022-12-10T01:59:33;1.90;86.70
70676;DHT22;59069;52.242;20.900;2022-12-10T02:07:09;1.85;86.53
70676;DHT22;59069;52.242;20.900;2022-12-10T02:10:04;1.85;86.52
70676;DHT22;59069;52.242;20.900;2022-12-10T02:12:40;1.86;86.61
70676;DHT22;59069;52.242;20.900;2022-12-10T02:15:27;1.82;86.63
70676;DHT22;59069;52.242;20.900;2022-12-10T02:17:58;1.82;86.55
70676;DHT22;59069;52.242;20.900;2022-12-10T02:20:48;1.83;86.61
70676;DHT22;59069;52.242;20.900;2022-12-10T02:23:44;1.79;86.67
70676;DHT22;59069;52.242;20.900;2022-12-10T02:31:32;1.75;86.88
70676;DHT22;59069;52.242;20.900;2022-12-10T02:33:59;1.76;87.01
70676;DHT22;59069;52.242;20.900;2022-12-10T02:36:29;1.78;86.98
70676;DHT22;59069;52.242;20.900;2022-12-10T02:38:59;1.73;86.94
70676;DHT22;59069;52.242;20.900;2022-12-10T02:41:32;1.75;87.05
70676;DHT22;59069;52.242;20.900;2022-12-10T02:44:00;1.71;87.02
70676;DHT22;59069;52.242;20.900;2022-12-10T02:46:27;1.66;87.07
70676;DHT22;59069;52.242;20.900;2022-12-10T02:48:55;1.66;87.19
70676;DHT22;59069;52.242;20.900;2022-12-10T02:51:21;1.66;87.21
70676;DHT22;59069;52.242;20.900;2022-12-10T02:53:47;1.66;87.28
70676;DHT22;59069;52.242;20.900;2022-12-10T02:56:25;1.62;87.20
70676;DHT22;59069;52.242;20.900;2022-12-10T02:59:06;1.62;87.29
70676;DHT22;59069;52.242;20.900;2022-12-10T03:01:46;1.61;87.28
70676;DHT22;59069;52.242;20.900;2022-12-10T03:04:32;1.61;87.39
70676;DHT22;59069;52.242;20.900;2022-12-10T03:07:03;1.61;87.45
70676;DHT22;59069;52.242;20.900;2022-12-10T03:09:46;1.65;87.44
70676;DHT22;59069;52.242;20.900;2022-12-10T03:14:47;1.69;87.39
70676;DHT22;59069;52.242;20.900;2022-12-10T03:17:13;1.72;87.35
70676;DHT22;59069;52.242;20.900;2022-12-10T03:19:43;1.69;87.33
70676;DHT22;59069;52.242;20.900;2022-12-10T03:22:12;1.68;87.35
70676;DHT22;59069;52.242;20.900;2022-12-10T03:24:38;1.68;87.38
70676;DHT22;59069;52.242;20.900;2022-12-10T03:27:06;1.66;87.29
70676;DHT22;59069;52.242;20.900;2022-12-10T03:29:37;1.66;87.36
70676;DHT22;59069;52.242;20.900;2022-12-10T03:32:04;1.66;87.45
70676;DHT22;59069;52.242;20.900;2022-12-10T03:34:30;1.66;87.50
70676;DHT22;59069;52.242;20.900;2022-12-10T03:36:56;1.63;87.30
70676;DHT22;59069;52.242;20.900;2022-12-10T03:39:23;1.68;87.27
70676;DHT22;59069;52.242;20.900;2022-12-10T03:41:49;1.63;87.31
70676;DHT22;59069;52.242;20.900;2022-12-10T03:44:29;1.63;87.35
70676;DHT22;59069;52.242;20.900;2022-12-10T03:46:55;1.63;87.37
70676;DHT22;59069;52.242;20.900;2022-12-10T03:49:20;1.68;87.26
70676;DHT22;59069;52.242;20.900;2022-12-10T03:51:45;1.68;87.25
70676;DHT22;59069;52.242;20.900;2022-12-10T03:54:11;1.68;87.14
70676;DHT22;59069;52.242;20.900;2022-12-10T03:56:37;1.66;87.07
70676;DHT22;59069;52.242;20.900;2022-12-10T03:59:03;1.63;87.09
70676;DHT22;59069;52.242;20.900;2022-12-10T04:01:28;1.61;87.26
70676;DHT22;59069;52.242;20.900;2022-12-10T04:03:53;1.58;87.52
70676;DHT22;59069;52.242;20.900;2022-12-10T04:06:19;1.61;87.58
70676;DHT22;59069;52.242;20.900;2022-12-10T04:08:45;1.63;87.54
70676;DHT22;59069;52.242;20.900;2022-12-10T04:11:13;1.59;87.49
70676;DHT22;59069;52.242;20.900;2022-12-10T04:13:39;1.62;87.44
70676;DHT22;59069;52.242;20.900;2022-12-10T04:16:24;1.61;87.51
70676;DHT22;59069;52.242;20.900;2022-12-10T04:19:01;1.62;87.60
70676;DHT22;59069;52.242;20.900;2022-12-10T04:21:28;1.56;87.51
70676;DHT22;59069;52.242;20.900;2022-12-10T04:24:13;1.58;87.62
70676;DHT22;59069;52.242;20.900;2022-12-10T04:27:00;1.61;87.66
70676;DHT22;59069;52.242;20.900;2022-12-10T04:29:28;1.62;87.68
70676;DHT22;59069;52.242;20.900;2022-12-10T04:31:54;1.59;87.61
70676;DHT22;59069;52.242;20.900;2022-12-10T04:34:20;1.59;87.56
70676;DHT22;59069;52.242;20.900;2022-12-10T04:36:46;1.58;87.55
70676;DHT22;59069;52.242;20.900;2022-12-10T04:39:12;1.56;87.63
70676;DHT22;59069;52.242;20.900;2022-12-10T04:41:40;1.58;87.48
70676;DHT22;59069;52.242;20.900;2022-12-10T04:44:06;1.55;87.48
70676;DHT22;59069;52.242;20.900;2022-12-10T04:46:32;1.52;87.54
70676;DHT22;59069;52.242;20.900;2022-12-10T04:48:58;1.51;87.60
70676;DHT22;59069;52.242;20.900;2022-12-10T04:51:23;1.48;87.64
70676;DHT22;59069;52.242;20.900;2022-12-10T04:53:49;1.48;87.60
70676;DHT22;59069;52.242;20.900;2022-12-10T04:56:14;1.44;87.68
70676;DHT22;59069;52.242;20.900;2022-12-10T04:58:40;1.47;87.84
70676;DHT22;59069;52.242;20.900;2022-12-10T05:01:07;1.48;87.93
70676;DHT22;59069;52.242;20.900;2022-12-10T05:03:34;1.51;87.93
70676;DHT22;59069;52.242;20.900;2022-12-10T05:06:05;1.49;88.07
70676;DHT22;59069;52.242;20.900;2022-12-10T05:08:31;1.52;88.04
70676;DHT22;59069;52.242;20.900;2022-12-10T05:11:12;1.52;87.97
70676;DHT22;59069;52.242;20.900;2022-12-10T05:13:38;1.51;87.86
70676;DHT22;59069;52.242;20.900;2022-12-10T05:16:05;1.51;87.91
70676;DHT22;59069;52.242;20.900;2022-12-10T05:18:31;1.49;87.78
70676;DHT22;59069;52.242;20.900;2022-12-10T05:21:09;1.45;87.78
70676;DHT22;59069;52.242;20.900;2022-12-10T05:23:37;1.45;87.73
70676;DHT22;59069;52.242;20.900;2022-12-10T05:28:36;1.40;87.91
70676;DHT22;59069;52.242;20.900;2022-12-10T05:31:02;1.42;87.89
70676;DHT22;59069;52.242;20.900;2022-12-10T05:33:28;1.44;87.90
70676;DHT22;59069;52.242;20.900;2022-12-10T05:35:59;1.44;87.83
70676;DHT22;59069;52.242;20.900;2022-12-10T05:38:26;1.47;87.82
70676;DHT22;59069;52.242;20.900;2022-12-10T05:40:51;1.49;87.77
70676;DHT22;59069;52.242;20.900;2022-12-10T05:43:17;1.49;87.70
70676;DHT22;59069;52.242;20.900;2022-12-10T05:45:43;1.47;87.54
70676;DHT22;59069;52.242;20.900;2022-12-10T05:48:10;1.42;87.51
70676;DHT22;59069;52.242;20.900;2022-12-10T05:50:35;1.38;87.52
70676;DHT22;59069;52.242;20.900;2022-12-10T05:53:01;1.34;87.69
70676;DHT22;59069;52.242;20.900;2022-12-10T05:55:27;1.34;87.75
70676;DHT22;59069;52.242;20.900;2022-12-10T05:57:54;1.31;87.86
70676;DHT22;59069;52.242;20.900;2022-12-10T06:00:20;1.31;87.85
70676;DHT22;59069;52.242;20.900;2022-12-10T06:02:49;1.30;87.89
70676;DHT22;59069;52.242;20.900;2022-12-10T06:05:14;1.31;87.92
70676;DHT22;59069;52.242;20.900;2022-12-10T06:07:40;1.26;87.92
70676;DHT22;59069;52.242;20.900;2022-12-10T06:10:05;1.23;88.03
70676;DHT22;59069;52.242;20.900;2022-12-10T06:12:31;1.27;88.06
70676;DHT22;59069;52.242;20.900;2022-12-10T06:14:56;1.26;87.98
70676;DHT22;59069;52.242;20.900;2022-12-10T06:17:22;1.26;87.85
70676;DHT22;59069;52.242;20.900;2022-12-10T06:19:47;1.23;87.95
70676;DHT22;59069;52.242;20.900;2022-12-10T06:22:13;1.21;88.07
70676;DHT22;59069;52.242;20.900;2022-12-10T06:24:38;1.20;87.90
70676;DHT22;59069;52.242;20.900;2022-12-10T06:27:03;1.21;87.94
70676;DHT22;59069;52.242;20.900;2022-12-10T06:29:30;1.21;87.87
70676;DHT22;59069;52.242;20.900;2022-12-10T06:31:55;1.21;87.92
70676;DHT22;59069;52.242;20.900;2022-12-10T06:34:21;1.20;87.89
70676;DHT22;59069;52.242;20.900;2022-12-10T06:36:47;1.20;87.88
70676;DHT22;59069;52.242;20.900;2022-12-10T06:39:12;1.21;87.83
70676;DHT22;59069;52.242;20.900;2022-12-10T06:41:38;1.21;87.72
70676;DHT22;59069;52.242;20.900;2022-12-10T06:44:07;1.21;87.69
70676;DHT22;59069;52.242;20.900;2022-12-10T06:46:32;1.21;87.65
70676;DHT22;59069;52.242;20.900;2022-12-10T06:48:58;1.24;87.61
70676;DHT22;59069;52.242;20.900;2022-12-10T06:51:24;1.26;87.57
70676;DHT22;59069;52.242;20.900;2022-12-10T06:53:49;1.28;87.55
70676;DHT22;59069;52.242;20.900;2022-12-10T06:56:17;1.28;87.46
70676;DHT22;59069;52.242;20.900;2022-12-10T06:58:43;1.31;87.44
70676;DHT22;59069;52.242;20.900;2022-12-10T07:01:14;1.30;87.47
70676;DHT22;59069;52.242;20.900;2022-12-10T07:03:41;1.32;87.47
70676;DHT22;59069;52.242;20.900;2022-12-10T07:06:07;1.31;87.50
70676;DHT22;59069;52.242;20.900;2022-12-10T07:08:34;1.32;87.52
70676;DHT22;59069;52.242;20.900;2022-12-10T07:11:06;1.37;87.45
70676;DHT22;59069;52.242;20.900;2022-12-10T07:13:32;1.35;87.36
70676;DHT22;59069;52.242;20.900;2022-12-10T07:15:58;1.37;87.33
70676;DHT22;59069;52.242;20.900;2022-12-10T07:18:24;1.35;87.43
70676;DHT22;59069;52.242;20.900;2022-12-10T07:20:49;1.35;87.54
70676;DHT22;59069;52.242;20.900;2022-12-10T07:23:15;1.37;87.62
70676;DHT22;59069;52.242;20.900;2022-12-10T07:25:40;1.40;87.64
70676;DHT22;59069;52.242;20.900;2022-12-10T07:28:05;1.40;87.64
70676;DHT22;59069;52.242;20.900;2022-12-10T07:30:31;1.41;87.63
70676;DHT22;59069;52.242;20.900;2022-12-10T07:32:57;1.47;87.68
70676;DHT22;59069;52.242;20.900;2022-12-10T07:35:22;1.42;87.51
70676;DHT22;59069;52.242;20.900;2022-12-10T07:37:48;1.41;87.58
70676;DHT22;59069;52.242;20.900;2022-12-10T07:40:13;1.38;87.72
70676;DHT22;59069;52.242;20.900;2022-12-10T07:42:38;1.40;87.85
70676;DHT22;59069;52.242;20.900;2022-12-10T07:45:04;1.44;87.89
70676;DHT22;59069;52.242;20.900;2022-12-10T07:47:30;1.41;87.85
70676;DHT22;59069;52.242;20.900;2022-12-10T07:49:55;1.47;87.75
70676;DHT22;59069;52.242;20.900;2022-12-10T07:52:21;1.49;87.74
70676;DHT22;59069;52.242;20.900;2022-12-10T07:54:46;1.49;87.66
70676;DHT22;59069;52.242;20.900;2022-12-10T07:57:12;1.52;87.62
70676;DHT22;59069;52.242;20.900;2022-12-10T07:59:39;1.55;87.55
70676;DHT22;59069;52.242;20.900;2022-12-10T08:02:04;1.54;87.60
70676;DHT22;59069;52.242;20.900;2022-12-10T08:04:30;1.58;87.58
70676;DHT22;59069;52.242;20.900;2022-12-10T08:06:56;1.59;87.54
70676;DHT22;59069;52.242;20.900;2022-12-10T08:09:23;1.58;87.58
70676;DHT22;59069;52.242;20.900;2022-12-10T08:11:48;1.55;87.42
70676;DHT22;59069;52.242;20.900;2022-12-10T08:14:14;1.55;87.37
70676;DHT22;59069;52.242;20.900;2022-12-10T08:16:39;1.59;87.86
70676;DHT22;59069;52.242;20.900;2022-12-10T08:19:05;1.66;88.43
70676;DHT22;59069;52.242;20.900;2022-12-10T08:21:32;1.78;88.26
70676;DHT22;59069;52.242;20.900;2022-12-10T08:23:58;1.79;87.85
70676;DHT22;59069;52.242;20.900;2022-12-10T08:26:27;1.83;87.66
70676;DHT22;59069;52.242;20.900;2022-12-10T08:28:53;1.82;87.47
70676;DHT22;59069;52.242;20.900;2022-12-10T08:31:20;1.83;87.51
70676;DHT22;59069;52.242;20.900;2022-12-10T08:33:46;1.85;87.46
70676;DHT22;59069;52.242;20.900;2022-12-10T08:36:13;1.87;87.39
70676;DHT22;59069;52.242;20.900;2022-12-10T08:38:40;1.87;87.34
70676;DHT22;59069;52.242;20.900;2022-12-10T08:41:14;1.87;87.31
70676;DHT22;59069;52.242;20.900;2022-12-10T08:43:40;1.89;87.11
70676;DHT22;59069;52.242;20.900;2022-12-10T08:46:06;1.85;86.83
70676;DHT22;59069;52.242;20.900;2022-12-10T08:48:32;1.82;86.85
70676;DHT22;59069;52.242;20.900;2022-12-10T08:50:58;1.85;86.91
70676;DHT22;59069;52.242;20.900;2022-12-10T08:53:23;1.83;86.82
70676;DHT22;59069;52.242;20.900;2022-12-10T08:55:51;1.85;86.85
70676;DHT22;59069;52.242;20.900;2022-12-10T08:58:16;1.85;86.87
70676;DHT22;59069;52.242;20.900;2022-12-10T09:00:42;1.82;86.75
70676;DHT22;59069;52.242;20.900;2022-12-10T09:03:08;1.82;86.79
70676;DHT22;59069;52.242;20.900;2022-12-10T09:05:34;1.83;86.81
70676;DHT22;59069;52.242;20.900;2022-12-10T09:07:59;1.82;86.77
70676;DHT22;59069;52.242;20.900;2022-12-10T09:10:25;1.82;86.70
70676;DHT22;59069;52.242;20.900;2022-12-10T09:12:50;1.86;86.62
70676;DHT22;59069;52.242;20.900;2022-12-10T09:15:16;1.86;86.64
70676;DHT22;59069;52.242;20.900;2022-12-10T09:17:41;1.86;86.56
70676;DHT22;59069;52.242;20.900;2022-12-10T09:20:07;1.85;86.57
70676;DHT22;59069;52.242;20.900;2022-12-10T09:22:32;1.86;86.57
70676;DHT22;59069;52.242;20.900;2022-12-10T09:25:03;1.83;86.66
70676;DHT22;59069;52.242;20.900;2022-12-10T09:27:29;1.87;86.72
70676;DHT22;59069;52.242;20.900;2022-12-10T09:29:55;1.87;86.59
70676;DHT22;59069;52.242;20.900;2022-12-10T09:32:20;1.92;86.61
70676;DHT22;59069;52.242;20.900;2022-12-10T09:34:46;1.93;86.62
70676;DHT22;59069;52.242;20.900;2022-12-10T09:37:11;1.95;86.59
70676;DHT22;59069;52.242;20.900;2022-12-10T09:39:37;1.96;86.61
70676;DHT22;59069;52.242;20.900;2022-12-10T09:47:29;2.00;86.61
70676;DHT22;59069;52.242;20.900;2022-12-10T09:52:48;2.02;86.67
70676;DHT22;59069;52.242;20.900;2022-12-10T09:55:27;2.07;86.72
70676;DHT22;59069;52.242;20.900;2022-12-10T09:57:54;2.10;86.58
70676;DHT22;59069;52.242;20.900;2022-12-10T10:02:56;2.13;86.32
70676;DHT22;59069;52.242;20.900;2022-12-10T10:05:27;2.13;86.33
70676;DHT22;59069;52.242;20.900;2022-12-10T10:07:59;2.19;86.31
70676;DHT22;59069;52.242;20.900;2022-12-10T10:10:33;2.20;86.26
70676;DHT22;59069;52.242;20.900;2022-12-10T10:15:40;2.20;85.92
70676;DHT22;59069;52.242;20.900;2022-12-10T10:20:38;2.23;85.88
70676;DHT22;59069;52.242;20.900;2022-12-10T10:23:04;2.21;85.90
70676;DHT22;59069;52.242;20.900;2022-12-10T10:25:30;2.23;85.83
70676;DHT22;59069;52.242;20.900;2022-12-10T10:27:55;2.24;85.87
70676;DHT22;59069;52.242;20.900;2022-12-10T10:30:22;2.21;85.98
70676;DHT22;59069;52.242;20.900;2022-12-10T10:32:50;2.27;85.92
70676;DHT22;59069;52.242;20.900;2022-12-10T10:35:26;2.27;85.90
70676;DHT22;59069;52.242;20.900;2022-12-10T10:37:57;2.30;85.91
70676;DHT22;59069;52.242;20.900;2022-12-10T10:43:14;2.37;85.72
70676;DHT22;59069;52.242;20.900;2022-12-10T10:45:48;2.36;85.40
70676;DHT22;59069;52.242;20.900;2022-12-10T10:48:22;2.41;85.55
70676;DHT22;59069;52.242;20.900;2022-12-10T10:50:52;2.38;85.48
70676;DHT22;59069;52.242;20.900;2022-12-10T10:55:46;2.43;85.52
70676;DHT22;59069;52.242;20.900;2022-12-10T10:58:19;2.44;85.39
70676;DHT22;59069;52.242;20.900;2022-12-10T11:03:26;2.51;84.96
70676;DHT22;59069;52.242;20.900;2022-12-10T11:05:53;2.51;84.65
70676;DHT22;59069;52.242;20.900;2022-12-10T11:08:19;2.51;84.42
70676;DHT22;59069;52.242;20.900;2022-12-10T11:10:54;2.50;84.55
70676;DHT22;59069;52.242;20.900;2022-12-10T11:13:27;2.48;84.68
70676;DHT22;59069;52.242;20.900;2022-12-10T11:16:10;2.48;84.55
70676;DHT22;59069;52.242;20.900;2022-12-10T11:18:41;2.47;84.63
70676;DHT22;59069;52.242;20.900;2022-12-10T11:23:46;2.45;84.25
70676;DHT22;59069;52.242;20.900;2022-12-10T11:34:19;2.38;84.59
70676;DHT22;59069;52.242;20.900;2022-12-10T11:37:08;2.38;84.59
70676;DHT22;59069;52.242;20.900;2022-12-10T11:42:09;2.40;84.45
70676;DHT22;59069;52.242;20.900;2022-12-10T11:44:51;2.38;84.34
70676;DHT22;59069;52.242;20.900;2022-12-10T11:50:30;2.36;84.34
70676;DHT22;59069;52.242;20.900;2022-12-10T11:53:13;2.36;84.37
70676;DHT22;59069;52.242;20.900;2022-12-10T12:07:33;2.45;84.07
70676;DHT22;59069;52.242;20.900;2022-12-10T12:12:39;2.37;83.85
70676;DHT22;59069;52.242;20.900;2022-12-10T12:18:29;2.24;83.56
70676;DHT22;59069;52.242;20.900;2022-12-10T12:21:02;2.16;83.82
70676;DHT22;59069;52.242;20.900;2022-12-10T12:23:43;2.12;84.00
70676;DHT22;59069;52.242;20.900;2022-12-10T12:26:27;2.12;84.19
70676;DHT22;59069;52.242;20.900;2022-12-10T12:29:19;2.12;84.17
70676;DHT22;59069;52.242;20.900;2022-12-10T12:32:04;2.12;84.30
70676;DHT22;59069;52.242;20.900;2022-12-10T12:34:59;2.09;84.01
70676;DHT22;59069;52.242;20.900;2022-12-10T12:37:51;2.03;84.17
70676;DHT22;59069;52.242;20.900;2022-12-10T12:43:23;2.07;84.32
70676;DHT22;59069;52.242;20.900;2022-12-10T12:45:53;2.10;84.21
70676;DHT22;59069;52.242;20.900;2022-12-10T12:48:40;2.16;84.14
70676;DHT22;59069;52.242;20.900;2022-12-10T12:53:42;2.21;84.21
70676;DHT22;59069;52.242;20.900;2022-12-10T12:56:33;2.23;84.09
70676;DHT22;59069;52.242;20.900;2022-12-10T13:01:54;2.23;84.06
70676;DHT22;59069;52.242;20.900;2022-12-10T13:04:22;2.23;83.97
70676;DHT22;59069;52.242;20.900;2022-12-10T13:07:26;2.23;83.99
70676;DHT22;59069;52.242;20.900;2022-12-10T13:10:17;2.23;84.00
70676;DHT22;59069;52.242;20.900;2022-12-10T13:12:49;2.21;84.09
70676;DHT22;59069;52.242;20.900;2022-12-10T13:15:20;2.23;84.12
70676;DHT22;59069;52.242;20.900;2022-12-10T13:18:19;2.21;83.90
70676;DHT22;59069;52.242;20.900;2022-12-10T13:20:49;2.19;83.91
70676;DHT22;59069;52.242;20.900;2022-12-10T13:34:20;2.16;84.05
70676;DHT22;59069;52.242;20.900;2022-12-10T13:39:20;2.14;83.97
70676;DHT22;59069;52.242;20.900;2022-12-10T13:44:59;2.16;84.03
70676;DHT22;59069;52.242;20.900;2022-12-10T13:55:42;2.05;84.07
70676;DHT22;59069;52.242;20.900;2022-12-10T14:01:05;1.96;84.13
70676;DHT22;59069;52.242;20.900;2022-12-10T14:04:03;1.95;84.20
70676;DHT22;59069;52.242;20.900;2022-12-10T14:06:38;1.90;84.23
70676;DHT22;59069;52.242;20.900;2022-12-10T14:09:21;1.93;84.18
70676;DHT22;59069;52.242;20.900;2022-12-10T14:11:57;1.89;84.08
70676;DHT22;59069;52.242;20.900;2022-12-10T14:14:31;1.90;83.98
70676;DHT22;59069;52.242;20.900;2022-12-10T14:17:03;1.87;83.86
70676;DHT22;59069;52.242;20.900;2022-12-10T14:19:30;1.85;83.81
70676;DHT22;59069;52.242;20.900;2022-12-10T14:21:56;1.85;83.91
70676;DHT22;59069;52.242;20.900;2022-12-10T14:24:36;1.85;83.95
70676;DHT22;59069;52.242;20.900;2022-12-10T14:27:13;1.83;83.73
70676;DHT22;59069;52.242;20.900;2022-12-10T14:29:53;1.80;83.89
70676;DHT22;59069;52.242;20.900;2022-12-10T14:32:30;1.83;83.92
70676;DHT22;59069;52.242;20.900;2022-12-10T14:34:58;1.83;83.99
70676;DHT22;59069;52.242;20.900;2022-12-10T14:37:31;1.83;83.92
70676;DHT22;59069;52.242;20.900;2022-12-10T14:39:58;1.78;83.67
70676;DHT22;59069;52.242;20.900;2022-12-10T14:42:23;1.78;83.86
70676;DHT22;59069;52.242;20.900;2022-12-10T14:44:58;1.79;83.95
70676;DHT22;59069;52.242;20.900;2022-12-10T14:47:24;1.78;84.02
70676;DHT22;59069;52.242;20.900;2022-12-10T14:49:54;1.80;84.07
70676;DHT22;59069;52.242;20.900;2022-12-10T14:52:30;1.78;84.18
70676;DHT22;59069;52.242;20.900;2022-12-10T14:54:58;1.79;84.04
70676;DHT22;59069;52.242;20.900;2022-12-10T14:57:40;1.73;83.98
70676;DHT22;59069;52.242;20.900;2022-12-10T15:00:10;1.68;83.74
70676;DHT22;59069;52.242;20.900;2022-12-10T15:02:39;1.63;83.86
70676;DHT22;59069;52.242;20.900;2022-12-10T15:05:32;1.62;83.96
70676;DHT22;59069;52.242;20.900;2022-12-10T15:08:11;1.59;83.99
70676;DHT22;59069;52.242;20.900;2022-12-10T15:10:44;1.59;83.81
70676;DHT22;59069;52.242;20.900;2022-12-10T15:13:19;1.56;83.70
70676;DHT22;59069;52.242;20.900;2022-12-10T15:15:51;1.55;83.80
70676;DHT22;59069;52.242;20.900;2022-12-10T15:18:28;1.52;83.61
70676;DHT22;59069;52.242;20.900;2022-12-10T15:21:09;1.48;83.78
70676;DHT22;59069;52.242;20.900;2022-12-10T15:23:35;1.52;83.82
70676;DHT22;59069;52.242;20.900;2022-12-10T15:28:42;1.59;83.74
70676;DHT22;59069;52.242;20.900;2022-12-10T15:33:53;1.61;83.66
70676;DHT22;59069;52.242;20.900;2022-12-10T15:36:52;1.59;83.46
70676;DHT22;59069;52.242;20.900;2022-12-10T15:39:31;1.59;83.41
70676;DHT22;59069;52.242;20.900;2022-12-10T15:41:58;1.58;83.40
70676;DHT22;59069;52.242;20.900;2022-12-10T15:49:43;1.54;83.43
70676;DHT22;59069;52.242;20.900;2022-12-10T15:52:29;1.54;83.30
70676;DHT22;59069;52.242;20.900;2022-12-10T15:54:56;1.51;83.26
70676;DHT22;59069;52.242;20.900;2022-12-10T15:59:51;1.47;83.36
70676;DHT22;59069;52.242;20.900;2022-12-10T16:04:46;1.49;83.21
70676;DHT22;59069;52.242;20.900;2022-12-10T16:07:12;1.51;83.26
70676;DHT22;59069;52.242;20.900;2022-12-10T16:09:41;1.51;83.28
70676;DHT22;59069;52.242;20.900;2022-12-10T16:12:09;1.52;83.32
70676;DHT22;59069;52.242;20.900;2022-12-10T16:14:36;1.54;83.27
70676;DHT22;59069;52.242;20.900;2022-12-10T16:17:01;1.56;83.17
70676;DHT22;59069;52.242;20.900;2022-12-10T16:19:27;1.58;83.11
70676;DHT22;59069;52.242;20.900;2022-12-10T16:21:52;1.54;83.04
70676;DHT22;59069;52.242;20.900;2022-12-10T16:24:18;1.55;83.02
70676;DHT22;59069;52.242;20.900;2022-12-10T16:26:43;1.55;82.79
70676;DHT22;59069;52.242;20.900;2022-12-10T16:29:09;1.48;82.79
70676;DHT22;59069;52.242;20.900;2022-12-10T16:31:35;1.45;82.78
70676;DHT22;59069;52.242;20.900;2022-12-10T16:34:00;1.42;82.65
70676;DHT22;59069;52.242;20.900;2022-12-10T16:36:26;1.42;82.73
70676;DHT22;59069;52.242;20.900;2022-12-10T16:38:51;1.40;82.73
70676;DHT22;59069;52.242;20.900;2022-12-10T16:41:24;1.32;82.58
70676;DHT22;59069;52.242;20.900;2022-12-10T16:43:49;1.32;82.69
70676;DHT22;59069;52.242;20.900;2022-12-10T16:46:15;1.28;82.66
70676;DHT22;59069;52.242;20.900;2022-12-10T16:48:41;1.21;82.55
70676;DHT22;59069;52.242;20.900;2022-12-10T16:51:32;1.21;82.62
70676;DHT22;59069;52.242;20.900;2022-12-10T16:53:58;1.17;82.77
70676;DHT22;59069;52.242;20.900;2022-12-10T16:56:23;1.17;82.90
70676;DHT22;59069;52.242;20.900;2022-12-10T16:58:49;1.17;83.04
70676;DHT22;59069;52.242;20.900;2022-12-10T17:01:26;1.20;82.91
70676;DHT22;59069;52.242;20.900;2022-12-10T17:03:58;1.21;82.97
70676;DHT22;59069;52.242;20.900;2022-12-10T17:06:25;1.21;82.93
70676;DHT22;59069;52.242;20.900;2022-12-10T17:08:51;1.21;82.92
70676;DHT22;59069;52.242;20.900;2022-12-10T17:11:30;1.23;82.99
70676;DHT22;59069;52.242;20.900;2022-12-10T17:16:53;1.24;82.75
70676;DHT22;59069;52.242;20.900;2022-12-10T17:19:21;1.20;82.69
70676;DHT22;59069;52.242;20.900;2022-12-10T17:21:46;1.18;82.72
70676;DHT22;59069;52.242;20.900;2022-12-10T17:24:12;1.13;82.97
70676;DHT22;59069;52.242;20.900;2022-12-10T17:26:40;1.13;83.00
70676;DHT22;59069;52.242;20.900;2022-12-10T17:29:16;1.14;82.98
70676;DHT22;59069;52.242;20.900;2022-12-10T17:31:44;1.16;83.01
70676;DHT22;59069;52.242;20.900;2022-12-10T17:34:13;1.16;82.91
70676;DHT22;59069;52.242;20.900;2022-12-10T17:36:40;1.14;83.02
70676;DHT22;59069;52.242;20.900;2022-12-10T17:39:06;1.14;83.11
70676;DHT22;59069;52.242;20.900;2022-12-10T17:41:32;1.17;83.18
70676;DHT22;59069;52.242;20.900;2022-12-10T17:43:58;1.14;83.15
70676;DHT22;59069;52.242;20.900;2022-12-10T17:46:25;1.16;83.20
70676;DHT22;59069;52.242;20.900;2022-12-10T17:48:51;1.16;83.21
70676;DHT22;59069;52.242;20.900;2022-12-10T17:51:16;1.14;83.21
70676;DHT22;59069;52.242;20.900;2022-12-10T17:53:42;1.18;83.21
70676;DHT22;59069;52.242;20.900;2022-12-10T17:56:19;1.20;83.18